< < Back
Terminal Aerodrome Forecast


Current Version              Previous Versions:   1  2  3  4  5  6  7  8  9  

Terminal Aerodrome Forecast

920
FTUS42 KILM 201700
TAFILM
TAF
KILM 201727Z 2018/2118 17007KT P6SM FEW040
     FM202300 VRB03KT P6SM SCT040
     FM210600 VRB02KT P6SM VCSH SCT040
     FM211300 32006KT P6SM FEW040=



Latest METAR

584
SAUS70 KWBC 210800 RRC
MTRILM
METAR KILM 210753Z 00000KT 10SM CLR 13/12 A2993 RMK AO2 SLP136
T01280122


USA.gov is the U.S. government's official web portal to all federal, state and local government web resources and services.